createdAt,value
2022-10-22T00:02:27.565Z,1.45
2022-10-22T00:04:54.469Z,1.95
2022-10-22T00:07:21.253Z,1.90
2022-10-22T00:09:47.794Z,2.10
2022-10-22T00:12:15.710Z,1.92
2022-10-22T00:14:42.569Z,1.92
2022-10-22T00:17:11.566Z,2.30
2022-10-22T00:19:38.823Z,1.67
2022-10-22T00:22:05.737Z,2.00
2022-10-22T00:24:33.670Z,1.40
2022-10-22T00:27:00.026Z,1.65
2022-10-22T00:29:26.376Z,1.80
2022-10-22T00:31:52.854Z,1.63
2022-10-22T00:34:21.291Z,2.90
2022-10-22T00:36:48.547Z,2.10
2022-10-22T00:39:16.751Z,1.50
2022-10-22T00:41:44.892Z,1.92
2022-10-22T00:44:48.643Z,1.73
2022-10-22T00:47:16.887Z,2.00
2022-10-22T00:49:44.876Z,1.88
2022-10-22T00:52:11.621Z,1.70
2022-10-22T00:54:38.951Z,1.88
2022-10-22T00:57:05.550Z,2.00
2022-10-22T00:59:31.924Z,2.47
2022-10-22T01:01:58.311Z,2.40
2022-10-22T01:04:25.123Z,2.13
2022-10-22T01:06:51.645Z,2.40
2022-10-22T01:09:17.935Z,2.50
2022-10-22T01:12:14.931Z,2.53
2022-10-22T01:14:50.480Z,2.15
2022-10-22T01:17:22.363Z,1.80
2022-10-22T01:20:02.498Z,2.10
2022-10-22T01:22:39.019Z,1.40
2022-10-22T01:25:11.962Z,2.05
2022-10-22T01:28:00.108Z,2.10
2022-10-22T01:30:27.302Z,1.90
2022-10-22T01:32:59.547Z,1.95
2022-10-22T01:35:31.482Z,2.57
2022-10-22T01:38:02.723Z,1.60
2022-10-22T01:40:29.493Z,1.75
2022-10-22T01:42:57.684Z,1.38
2022-10-22T01:45:24.173Z,1.60
2022-10-22T01:48:01.938Z,1.40
2022-10-22T01:50:48.179Z,1.48
2022-10-22T01:53:37.460Z,1.73
2022-10-22T01:56:30.459Z,1.92
2022-10-22T01:58:59.678Z,1.30
2022-10-22T02:01:31.886Z,1.70
2022-10-22T02:04:08.490Z,1.52
2022-10-22T02:06:39.079Z,1.60
2022-10-22T02:09:07.651Z,1.77
2022-10-22T02:11:34.309Z,1.55
2022-10-22T02:14:04.313Z,2.17
2022-10-22T02:16:36.102Z,2.22
2022-10-22T02:19:10.371Z,1.35
2022-10-22T02:21:36.726Z,1.67
2022-10-22T02:24:03.143Z,2.15
2022-10-22T02:26:37.463Z,1.90
2022-10-22T02:29:24.116Z,1.70
2022-10-22T02:31:53.537Z,1.40
2022-10-22T02:34:26.009Z,2.03
2022-10-22T02:36:54.384Z,1.60
2022-10-22T02:39:21.656Z,1.33
2022-10-22T02:41:48.747Z,1.38
2022-10-22T02:44:15.087Z,1.88
2022-10-22T02:46:43.509Z,1.88
2022-10-22T02:49:09.803Z,1.73
2022-10-22T02:51:36.188Z,1.70
2022-10-22T02:54:03.123Z,1.90
2022-10-22T02:56:29.432Z,1.55
2022-10-22T02:58:55.876Z,1.58
2022-10-22T03:01:22.690Z,3.15
2022-10-22T03:03:49.220Z,2.27
2022-10-22T03:06:15.721Z,1.70
2022-10-22T03:08:42.358Z,1.95
2022-10-22T03:11:08.854Z,1.88
2022-10-22T03:13:35.189Z,2.25
2022-10-22T03:16:01.758Z,1.03
2022-10-22T03:18:28.295Z,1.80
2022-10-22T03:21:11.015Z,2.10
2022-10-22T03:23:39.943Z,1.30
2022-10-22T03:26:07.746Z,1.83
2022-10-22T03:28:36.242Z,1.40
2022-10-22T03:31:02.763Z,1.73
2022-10-22T03:33:29.071Z,1.27
2022-10-22T03:35:55.419Z,1.80
2022-10-22T03:38:21.884Z,1.92
2022-10-22T03:40:48.694Z,2.10
2022-10-22T03:43:16.095Z,1.80
2022-10-22T03:45:42.418Z,1.80
2022-10-22T03:48:08.783Z,1.77
2022-10-22T03:50:35.194Z,1.70
2022-10-22T03:53:01.519Z,1.83
2022-10-22T03:55:27.954Z,2.08
2022-10-22T03:57:54.263Z,1.77
2022-10-22T04:00:20.675Z,1.95
2022-10-22T04:02:47.004Z,1.92
2022-10-22T04:07:41.081Z,1.60
2022-10-22T04:10:07.832Z,2.85
2022-10-22T04:12:34.202Z,2.13
2022-10-22T04:15:00.547Z,1.70
2022-10-22T04:17:26.898Z,2.00
2022-10-22T04:19:53.236Z,1.60
2022-10-22T04:22:19.530Z,1.90
2022-10-22T04:24:45.913Z,1.48
2022-10-22T04:27:12.331Z,2.20
2022-10-22T04:29:38.619Z,1.80
2022-10-22T04:32:05.153Z,2.17
2022-10-22T04:34:31.579Z,2.15
2022-10-22T04:36:57.960Z,2.00
2022-10-22T04:39:24.357Z,2.17
2022-10-22T04:41:50.683Z,1.50
2022-10-22T04:44:17.554Z,1.73
2022-10-22T04:46:45.430Z,2.05
2022-10-22T04:49:11.795Z,2.08
2022-10-22T04:51:38.195Z,2.10
2022-10-22T04:54:05.288Z,1.83
2022-10-22T04:56:32.358Z,2.40
2022-10-22T04:59:07.256Z,2.10
2022-10-22T05:01:39.931Z,1.95
2022-10-22T05:04:12.088Z,1.52
2022-10-22T05:06:38.763Z,1.80
2022-10-22T05:09:08.412Z,2.17
2022-10-22T05:11:37.552Z,1.73
2022-10-22T05:14:05.964Z,1.63
2022-10-22T05:16:34.053Z,1.90
2022-10-22T05:19:01.631Z,2.00
2022-10-22T05:21:28.691Z,1.70
2022-10-22T05:23:56.654Z,1.23
2022-10-22T05:26:24.926Z,1.83
2022-10-22T05:28:52.098Z,2.22
2022-10-22T05:31:18.897Z,1.60
2022-10-22T05:33:46.156Z,1.83
2022-10-22T05:36:16.240Z,2.28
2022-10-22T05:38:42.690Z,1.83
2022-10-22T05:41:12.247Z,2.08
2022-10-22T05:43:38.972Z,2.03
2022-10-22T05:46:13.446Z,2.30
2022-10-22T05:48:40.285Z,1.88
2022-10-22T05:51:12.003Z,2.00
2022-10-22T05:53:41.386Z,1.63
2022-10-22T05:56:16.903Z,1.80
2022-10-22T05:58:44.699Z,1.55
2022-10-22T06:01:22.798Z,1.88
2022-10-22T06:03:49.875Z,1.58
2022-10-22T06:06:35.995Z,1.35
2022-10-22T06:09:07.154Z,1.40
2022-10-22T06:11:35.168Z,1.70
2022-10-22T06:14:01.830Z,2.42
2022-10-22T06:16:31.751Z,1.95
2022-10-22T06:19:02.013Z,2.53
2022-10-22T06:21:29.463Z,1.43
2022-10-22T06:23:57.186Z,1.85
2022-10-22T06:26:23.926Z,1.60
2022-10-22T06:28:50.398Z,1.35
2022-10-22T06:31:16.756Z,1.50
2022-10-22T06:33:43.337Z,1.20
2022-10-22T06:36:12.107Z,1.05
2022-10-22T06:38:38.931Z,1.35
2022-10-22T06:41:10.966Z,2.08
2022-10-22T06:43:37.363Z,1.50
2022-10-22T06:46:07.335Z,1.40
2022-10-22T06:48:33.707Z,1.60
2022-10-22T06:51:05.771Z,1.27
2022-10-22T06:53:32.355Z,2.03
2022-10-22T06:55:58.690Z,1.60
2022-10-22T06:58:25.219Z,1.53
2022-10-22T07:01:11.196Z,1.58
2022-10-22T07:03:38.663Z,1.55
2022-10-22T07:06:08.481Z,1.05
2022-10-22T07:08:35.853Z,1.20
2022-10-22T07:11:17.552Z,1.30
2022-10-22T07:13:45.242Z,1.52
2022-10-22T07:16:11.759Z,1.20
2022-10-22T07:18:39.063Z,1.48
2022-10-22T07:21:06.091Z,1.58
2022-10-22T07:23:32.925Z,0.90
2022-10-22T07:25:59.719Z,1.45
2022-10-22T07:28:26.062Z,1.83
2022-10-22T07:30:52.679Z,2.28
2022-10-22T07:33:18.994Z,0.90
2022-10-22T07:35:45.567Z,1.20
2022-10-22T07:38:12.109Z,1.48
2022-10-22T07:40:38.460Z,1.15
2022-10-22T07:43:06.649Z,1.40
2022-10-22T07:45:33.617Z,1.25
2022-10-22T07:48:00.602Z,0.80
2022-10-22T07:50:27.081Z,0.93
2022-10-22T07:52:56.020Z,0.93
2022-10-22T07:55:23.913Z,0.80
2022-10-22T07:57:50.316Z,0.85
2022-10-22T08:00:19.415Z,0.60
2022-10-22T08:02:48.106Z,0.50
2022-10-22T08:05:14.491Z,0.63
2022-10-22T08:07:40.920Z,0.60
2022-10-22T08:10:08.167Z,0.80
2022-10-22T08:12:34.580Z,0.60
2022-10-22T08:15:00.881Z,1.05
2022-10-22T08:17:27.877Z,0.68
2022-10-22T08:19:54.198Z,0.45
2022-10-22T08:22:20.494Z,0.95
2022-10-22T08:24:46.881Z,0.70
2022-10-22T08:27:13.451Z,0.80
2022-10-22T08:29:40.070Z,0.77
2022-10-22T08:32:06.401Z,0.50
2022-10-22T08:34:32.784Z,0.45
2022-10-22T08:36:59.186Z,0.80
2022-10-22T08:39:25.547Z,0.50
2022-10-22T08:41:54.751Z,0.63
2022-10-22T08:44:40.660Z,1.80
2022-10-22T08:47:28.567Z,0.60
2022-10-22T08:49:56.970Z,0.63
2022-10-22T08:52:23.269Z,0.50
2022-10-22T08:54:55.465Z,0.70
2022-10-22T08:57:48.706Z,0.63
2022-10-22T09:00:33.733Z,0.70
2022-10-22T09:03:15.668Z,0.30
2022-10-22T09:05:54.185Z,0.57
2022-10-22T09:08:20.774Z,1.17
2022-10-22T09:10:57.390Z,0.50
2022-10-22T09:13:24.219Z,0.40
2022-10-22T09:16:13.674Z,0.43
2022-10-22T09:18:56.647Z,0.55
2022-10-22T09:21:33.328Z,1.17
2022-10-22T09:24:25.381Z,0.60
2022-10-22T09:26:52.344Z,0.50
2022-10-22T09:29:24.434Z,0.53
2022-10-22T09:31:50.844Z,0.47
2022-10-22T09:34:21.290Z,0.75
2022-10-22T09:36:47.703Z,0.60
2022-10-22T09:39:26.495Z,0.50
2022-10-22T09:41:52.899Z,0.70
2022-10-22T09:44:20.136Z,0.68
2022-10-22T09:46:46.666Z,0.50
2022-10-22T09:49:16.192Z,0.40
2022-10-22T09:51:56.150Z,1.00
2022-10-22T09:54:31.614Z,0.40
2022-10-22T09:57:04.506Z,1.00
2022-10-22T09:59:36.662Z,0.30
2022-10-22T10:02:19.928Z,0.65
2022-10-22T10:04:50.453Z,0.75
2022-10-22T10:07:26.453Z,0.50
2022-10-22T10:09:53.903Z,0.60
2022-10-22T10:12:24.790Z,0.45
2022-10-22T10:15:07.948Z,0.70
2022-10-22T10:17:44.150Z,0.60
2022-10-22T10:20:26.891Z,0.70
2022-10-22T10:23:11.621Z,0.40
2022-10-22T10:26:02.826Z,0.52
2022-10-22T10:28:35.391Z,0.77
2022-10-22T10:31:27.786Z,0.82
2022-10-22T10:34:09.490Z,0.70
2022-10-22T10:36:49.165Z,0.47
2022-10-22T10:39:23.938Z,0.68
2022-10-22T10:42:04.903Z,0.40
2022-10-22T10:44:55.835Z,1.02
2022-10-22T10:47:52.608Z,0.50
2022-10-22T10:50:52.725Z,0.40
2022-10-22T10:53:28.942Z,0.45
2022-10-22T10:56:19.692Z,0.30
2022-10-22T10:59:01.738Z,0.30
2022-10-22T11:01:40.381Z,0.40
2022-10-22T11:04:24.672Z,0.40
2022-10-22T11:06:58.650Z,0.30
2022-10-22T11:09:34.230Z,0.63
2022-10-22T11:12:05.504Z,0.70
2022-10-22T11:14:46.889Z,0.53
2022-10-22T11:17:18.441Z,0.55
2022-10-22T11:20:06.074Z,1.02
2022-10-22T11:22:36.899Z,0.40
2022-10-22T11:25:15.598Z,0.40
2022-10-22T11:27:53.801Z,0.50
2022-10-22T11:30:22.735Z,0.30
2022-10-22T11:32:56.072Z,0.40
2022-10-22T11:35:26.143Z,0.93
2022-10-22T11:37:56.058Z,0.60
2022-10-22T11:40:28.604Z,0.23
2022-10-22T11:43:03.816Z,0.68
2022-10-22T11:45:34.922Z,0.40
2022-10-22T11:48:10.397Z,0.43
2022-10-22T11:50:54.166Z,0.30
2022-10-22T11:53:32.644Z,0.50
2022-10-22T11:56:09.826Z,0.52
2022-10-22T11:58:42.663Z,0.57
2022-10-22T12:01:08.917Z,0.40
2022-10-22T12:03:35.278Z,0.60
2022-10-22T12:06:15.623Z,0.50
2022-10-22T12:08:45.335Z,0.40
2022-10-22T12:11:11.744Z,0.80
2022-10-22T12:14:03.045Z,0.93
2022-10-22T12:16:55.068Z,1.00
2022-10-22T12:19:22.217Z,0.47
2022-10-22T12:21:53.182Z,0.60
2022-10-22T12:24:23.393Z,0.63
2022-10-22T12:26:52.270Z,0.60
2022-10-22T12:29:23.594Z,0.52
2022-10-22T12:31:50.136Z,0.70
2022-10-22T12:34:19.360Z,0.43
2022-10-22T12:36:47.933Z,0.60
2022-10-22T12:39:22.075Z,1.00
2022-10-22T12:41:48.442Z,0.63
2022-10-22T12:44:17.746Z,0.63
2022-10-22T12:46:46.611Z,0.38
2022-10-22T12:49:22.332Z,0.50
2022-10-22T12:51:49.289Z,0.45
2022-10-22T12:54:25.039Z,0.73
2022-10-22T12:56:52.591Z,0.40
2022-10-22T12:59:28.139Z,0.60
2022-10-22T13:01:55.618Z,0.45
2022-10-22T13:04:34.554Z,0.90
2022-10-22T13:07:19.929Z,0.40
2022-10-22T13:09:58.795Z,0.70
2022-10-22T13:12:36.067Z,0.60
2022-10-22T13:15:38.902Z,0.52
2022-10-22T13:18:23.792Z,0.55
2022-10-22T13:21:03.333Z,0.70
2022-10-22T13:23:32.768Z,0.60
2022-10-22T13:26:17.828Z,0.70
2022-10-22T13:28:51.226Z,0.50
2022-10-22T13:31:20.907Z,0.80
2022-10-22T13:33:53.611Z,0.90
2022-10-22T13:36:20.128Z,1.03
2022-10-22T13:38:46.616Z,0.73
2022-10-22T13:41:21.548Z,0.55
2022-10-22T13:43:48.281Z,0.93
2022-10-22T13:46:14.769Z,0.90
2022-10-22T13:48:41.327Z,1.00
2022-10-22T13:51:15.799Z,0.77
2022-10-22T13:53:43.701Z,0.80
2022-10-22T13:56:14.047Z,1.10
2022-10-22T13:58:40.402Z,0.55
2022-10-22T14:01:16.598Z,1.00
2022-10-22T14:03:43.005Z,1.15
2022-10-22T14:06:14.564Z,0.75
2022-10-22T14:08:42.313Z,1.00
2022-10-22T14:11:12.174Z,0.95
2022-10-22T14:13:38.975Z,1.07
2022-10-22T14:16:07.972Z,0.95
2022-10-22T14:18:35.703Z,0.80
2022-10-22T14:21:10.296Z,0.70
2022-10-22T14:23:36.948Z,1.60
2022-10-22T14:26:04.113Z,0.90
2022-10-22T14:28:34.232Z,0.80
2022-10-22T14:31:10.833Z,0.98
2022-10-22T14:33:37.165Z,1.10
2022-10-22T14:36:03.565Z,0.70
2022-10-22T14:38:29.931Z,1.03
2022-10-22T14:40:57.696Z,1.48
2022-10-22T14:43:26.922Z,0.77
2022-10-22T14:45:53.286Z,0.68
2022-10-22T14:50:47.172Z,0.90
2022-10-22T14:53:14.588Z,0.60
2022-10-22T14:55:42.854Z,1.10
2022-10-22T14:58:09.153Z,0.98
2022-10-22T15:00:36.789Z,0.82
2022-10-22T15:03:04.433Z,1.73
2022-10-22T15:05:30.973Z,0.63
2022-10-22T15:07:59.037Z,1.42
2022-10-22T15:10:26.263Z,1.27
2022-10-22T15:12:52.643Z,1.05
2022-10-22T15:15:21.968Z,0.87
2022-10-22T15:17:49.504Z,0.88
2022-10-22T15:20:15.820Z,0.50
2022-10-22T15:22:42.625Z,0.73
2022-10-22T15:25:09.791Z,0.80
2022-10-22T15:27:36.196Z,0.40
2022-10-22T15:32:34.085Z,0.63
2022-10-22T15:35:05.855Z,0.63
2022-10-22T15:37:32.248Z,1.08
2022-10-22T15:39:58.697Z,0.40
2022-10-22T15:42:25.060Z,1.10
2022-10-22T15:44:57.901Z,1.30
2022-10-22T15:47:28.317Z,0.50
2022-10-22T15:49:55.091Z,1.05
2022-10-22T15:52:22.018Z,0.70
2022-10-22T15:54:48.391Z,0.60
2022-10-22T15:57:14.722Z,0.45
2022-10-22T15:59:41.063Z,0.60
2022-10-22T16:02:07.563Z,0.88
2022-10-22T16:04:33.878Z,0.50
2022-10-22T16:07:00.263Z,0.35
2022-10-22T16:09:27.555Z,0.40
2022-10-22T16:11:55.313Z,0.90
2022-10-22T16:14:23.234Z,0.70
2022-10-22T16:16:52.427Z,0.53
2022-10-22T16:19:21.038Z,0.40
2022-10-22T16:21:50.910Z,0.88
2022-10-22T16:24:18.237Z,1.83
2022-10-22T16:26:44.577Z,0.75
2022-10-22T16:29:12.491Z,0.50
2022-10-22T16:31:40.104Z,0.70
2022-10-22T16:34:07.079Z,1.00
2022-10-22T16:36:35.783Z,0.52
2022-10-22T16:39:02.702Z,0.40
2022-10-22T16:41:34.917Z,0.47
2022-10-22T16:44:03.994Z,0.73
2022-10-22T16:46:31.254Z,0.50
2022-10-22T16:48:57.723Z,0.50
2022-10-22T16:51:26.219Z,0.32
2022-10-22T16:53:53.057Z,0.50
2022-10-22T16:56:20.275Z,0.75
2022-10-22T16:58:49.327Z,1.17
2022-10-22T17:01:18.067Z,0.70
2022-10-22T17:03:45.094Z,0.68
2022-10-22T17:06:11.867Z,0.50
2022-10-22T17:08:39.238Z,0.80
2022-10-22T17:11:09.288Z,1.38
2022-10-22T17:13:36.109Z,1.20
2022-10-22T17:16:08.682Z,1.27
2022-10-22T17:18:37.002Z,1.23
2022-10-22T17:21:07.204Z,2.08
2022-10-22T17:23:33.545Z,2.45
2022-10-22T17:26:08.783Z,3.10
2022-10-22T17:28:36.374Z,4.80
2022-10-22T17:31:18.346Z,1.87
2022-10-22T17:33:45.642Z,0.93
2022-10-22T17:36:13.529Z,0.98
2022-10-22T17:38:41.666Z,1.27
2022-10-22T17:41:13.793Z,0.85
2022-10-22T17:43:41.122Z,0.67
2022-10-22T17:46:12.584Z,1.30
2022-10-22T17:48:38.884Z,1.05
2022-10-22T17:51:09.974Z,0.50
2022-10-22T17:53:39.573Z,1.00
2022-10-22T17:56:10.110Z,1.20
2022-10-22T17:58:37.096Z,1.13
2022-10-22T18:01:04.284Z,0.55
2022-10-22T18:03:30.736Z,0.70
2022-10-22T18:06:05.746Z,0.90
2022-10-22T18:08:32.272Z,0.73
2022-10-22T18:10:58.805Z,0.52
2022-10-22T18:13:25.114Z,0.70
2022-10-22T18:15:55.882Z,1.73
2022-10-22T18:18:23.857Z,1.27
2022-10-22T18:20:51.556Z,0.97
2022-10-22T18:23:18.178Z,0.93
2022-10-22T18:25:44.523Z,1.17
2022-10-22T18:28:13.654Z,0.98
2022-10-22T18:30:40.923Z,0.63
2022-10-22T18:33:08.438Z,0.87
2022-10-22T18:35:35.038Z,1.25
2022-10-22T18:38:01.406Z,1.00
2022-10-22T18:40:30.053Z,1.15
2022-10-22T18:42:56.935Z,0.85
2022-10-22T18:45:23.256Z,1.30
2022-10-22T18:47:49.661Z,1.10
2022-10-22T18:50:16.074Z,1.90
2022-10-22T18:52:42.817Z,1.20
2022-10-22T18:55:09.696Z,0.80
2022-10-22T18:57:36.007Z,1.73
2022-10-22T19:00:02.346Z,2.15
2022-10-22T19:02:29.754Z,2.78
2022-10-22T19:04:56.224Z,2.78
2022-10-22T19:07:22.734Z,2.72
2022-10-22T19:09:49.075Z,2.17
2022-10-22T20:43:52.702Z,7.88
2022-10-22T20:46:22.939Z,9.48
2022-10-22T20:48:51.862Z,9.02
2022-10-22T20:51:18.181Z,6.70
2022-10-22T20:53:44.509Z,7.32
2022-10-22T20:56:11.457Z,9.70
2022-10-22T20:58:38.090Z,7.68
2022-10-22T21:01:10.181Z,8.00
2022-10-22T21:03:37.472Z,7.33
2022-10-22T21:06:05.200Z,8.95
2022-10-22T21:08:31.763Z,6.68
2022-10-22T21:10:58.086Z,7.32
2022-10-22T21:13:24.475Z,5.65
2022-10-22T21:15:50.791Z,5.47
2022-10-22T21:18:17.143Z,5.40
2022-10-22T21:20:43.437Z,5.57
2022-10-22T21:23:09.751Z,5.05
2022-10-22T21:25:39.532Z,3.88
2022-10-22T21:28:08.358Z,5.40
2022-10-22T21:30:34.676Z,4.05
2022-10-22T21:33:01.015Z,2.95
2022-10-22T21:35:27.319Z,2.72
2022-10-22T21:37:53.652Z,3.53
2022-10-22T21:40:20.761Z,2.67
2022-10-22T21:42:47.163Z,3.00
2022-10-22T21:45:14.248Z,3.33
2022-10-22T21:47:42.157Z,2.65
2022-10-22T21:50:09.063Z,3.97
2022-10-22T21:52:35.423Z,2.67
2022-10-22T21:55:01.834Z,3.20
2022-10-22T21:57:28.181Z,3.03
2022-10-22T21:59:54.556Z,4.25
2022-10-22T22:04:54.684Z,4.23
2022-10-22T22:07:21.926Z,3.63
2022-10-22T22:09:51.636Z,4.72
2022-10-22T22:12:18.482Z,4.13
2022-10-22T22:14:44.827Z,3.67
2022-10-22T22:17:11.221Z,3.50
2022-10-22T22:19:40.853Z,3.60
2022-10-22T22:22:07.184Z,4.03
2022-10-22T22:24:33.938Z,4.63
2022-10-22T22:27:00.395Z,5.35
2022-10-22T22:29:26.737Z,3.67
2022-10-22T22:31:53.026Z,3.67
2022-10-22T22:34:19.448Z,3.78
2022-10-22T22:36:46.871Z,3.60
2022-10-22T22:39:17.288Z,4.45
2022-10-22T22:41:44.058Z,4.20
2022-10-22T22:44:10.418Z,4.13
2022-10-22T22:46:36.851Z,4.63
2022-10-22T22:49:03.875Z,3.92
2022-10-22T22:51:30.678Z,5.28
2022-10-22T22:53:58.088Z,5.27
2022-10-22T22:56:27.773Z,4.70
2022-10-22T22:58:55.297Z,5.20
2022-10-22T23:01:26.252Z,5.20
2022-10-22T23:04:22.803Z,5.05
2022-10-22T23:06:50.707Z,5.07
2022-10-22T23:11:50.681Z,6.35
2022-10-22T23:14:19.210Z,5.88
2022-10-22T23:16:48.198Z,6.65
2022-10-22T23:19:16.463Z,5.87
2022-10-22T23:21:48.544Z,5.03
2022-10-22T23:24:17.650Z,5.22
2022-10-22T23:26:46.312Z,4.72
2022-10-22T23:29:21.863Z,5.20
2022-10-22T23:31:50.239Z,4.53
2022-10-22T23:36:45.954Z,4.80
2022-10-22T23:39:17.354Z,4.32
2022-10-22T23:41:44.448Z,3.35
2022-10-22T23:44:11.825Z,3.43
2022-10-22T23:46:38.743Z,3.30
2022-10-22T23:49:06.650Z,3.17
2022-10-22T23:51:33.107Z,3.10
2022-10-22T23:54:04.563Z,3.95
2022-10-22T23:56:31.383Z,3.87
2022-10-22T23:58:57.767Z,3.63
